Time;durP1;ratioP1;P1;durP2;ratioP2;P2;SDS_P1;SDS_P2;PMS_P1;PMS_P2;Temp;Humidity;BMP_temperature;BMP_pressure;BME280_temperature;BME280_humidity;BME280_pressure;Samples;Min_cycle;Max_cycle;Signal;HPM_P1;HPM_P2
2022/05/18 00:04:46;;;;;;;4.53;4.00;;;;;;;;;;12510683;28;20047;-86
2022/05/18 00:10:49;;;;;;;7.18;6.25;;;;;;;;;;12527259;28;20053;-85
2022/05/18 00:16:51;;;;;;;4.78;4.38;;;;;;;;;;12543144;28;20025;-85
2022/05/18 00:22:54;;;;;;;4.65;4.25;;;;;;;;;;12544182;28;20393;-85
2022/05/18 00:28:56;;;;;;;4.78;4.30;;;;;;;;;;12525943;28;20053;-85
2022/05/18 00:34:57;;;;;;;4.72;4.32;;;;;;;;;;12544020;28;20033;-85
2022/05/18 00:41:00;;;;;;;3.83;3.53;;;;;;;;;;12543245;28;20037;-85
2022/05/18 00:47:02;;;;;;;3.30;3.10;;;;;;;;;;12543937;28;20482;-85
2022/05/18 00:53:19;;;;;;;3.40;3.10;;;;;;;;;;12530083;28;20506;-85
2022/05/18 00:59:26;;;;;;;5.00;4.63;;;;;;;;;;12536106;28;20470;-85
2022/05/18 01:05:30;;;;;;;5.15;4.65;;;;;;;;;;12553897;28;20470;-85
2022/05/18 01:11:34;;;;;;;4.78;4.30;;;;;;;;;;12485937;28;20062;-86
2022/05/18 01:17:38;;;;;;;5.43;4.38;;;;;;;;;;12531237;28;20041;-85
2022/05/18 01:23:52;;;;;;;3.78;3.47;;;;;;;;;;12502666;28;20038;-81
2022/05/18 01:29:55;;;;;;;4.90;4.50;;;;;;;;;;12502168;28;20397;-81
2022/05/18 01:35:56;;;;;;;5.30;4.47;;;;;;;;;;12502272;28;20034;-81
2022/05/18 01:42:07;;;;;;;4.78;4.25;;;;;;;;;;12500579;28;20025;-81
2022/05/18 01:48:13;;;;;;;3.05;2.85;;;;;;;;;;12501460;28;20029;-81
2022/05/18 01:54:15;;;;;;;4.55;4.15;;;;;;;;;;12499958;28;20509;-80
2022/05/18 02:00:17;;;;;;;3.08;2.88;;;;;;;;;;12500846;28;20482;-80
2022/05/18 02:06:18;;;;;;;;;;;;;;;;;;12501034;28;20359;-80
2022/05/18 02:12:20;;;;;;;7.15;6.45;;;;;;;;;;12542497;28;20408;-80
2022/05/18 02:18:22;;;;;;;6.85;5.88;;;;;;;;;;12549483;28;20029;-80
2022/05/18 02:24:24;;;;;;;7.55;6.70;;;;;;;;;;12549467;28;20037;-80
2022/05/18 02:30:26;;;;;;;5.38;4.88;;;;;;;;;;12531210;28;20517;-80
2022/05/18 02:36:28;;;;;;;6.03;4.95;;;;;;;;;;12548952;28;20043;-80
2022/05/18 02:42:30;;;;;;;5.18;4.68;;;;;;;;;;12530860;28;20382;-80
2022/05/18 02:48:32;;;;;;;5.43;4.18;;;;;;;;;;12547910;28;20381;-80
2022/05/18 03:00:54;;;;;;;3.83;2.55;;;;;;;;;;12547311;28;20041;-80
2022/05/18 03:06:56;;;;;;;2.55;2.35;;;;;;;;;;12547817;28;20041;-80
2022/05/18 03:12:58;;;;;;;3.35;2.97;;;;;;;;;;12495937;28;20055;-80
2022/05/18 03:18:59;;;;;;;2.45;2.00;;;;;;;;;;12496420;28;20040;-80
2022/05/18 03:25:02;;;;;;;2.25;2.05;;;;;;;;;;12479601;28;20041;-84
2022/05/18 03:31:05;;;;;;;2.92;2.60;;;;;;;;;;12495498;28;20037;-84
2022/05/18 03:37:07;;;;;;;3.40;3.10;;;;;;;;;;12479173;28;20048;-84
2022/05/18 03:43:09;;;;;;;3.20;2.90;;;;;;;;;;12495945;28;20033;-84
2022/05/18 03:49:11;;;;;;;4.05;3.17;;;;;;;;;;12495871;28;20037;-84
2022/05/18 03:55:13;;;;;;;2.80;2.20;;;;;;;;;;12495883;28;20498;-85
2022/05/18 04:01:15;;;;;;;1.77;1.67;;;;;;;;;;12494590;28;20033;-84
2022/05/18 04:07:17;;;;;;;1.58;1.40;;;;;;;;;;12497236;28;20390;-84
2022/05/18 04:13:20;;;;;;;1.25;1.15;;;;;;;;;;12527432;28;20044;-84
2022/05/18 04:19:22;;;;;;;0.80;0.80;;;;;;;;;;12526539;28;20389;-80
2022/05/18 04:25:25;;;;;;;1.40;1.02;;;;;;;;;;12543261;28;20029;-80
2022/05/18 04:31:27;;;;;;;0.80;0.80;;;;;;;;;;12543870;28;20049;-80
2022/05/18 04:37:29;;;;;;;1.55;1.20;;;;;;;;;;12543006;28;20381;-80
2022/05/18 04:43:34;;;;;;;1.00;1.00;;;;;;;;;;12527943;28;20041;-79
2022/05/18 04:49:36;;;;;;;1.30;1.20;;;;;;;;;;12543304;28;20052;-79
2022/05/18 04:55:38;;;;;;;1.63;1.25;;;;;;;;;;12542688;28;20037;-79
2022/05/18 05:01:41;;;;;;;1.40;1.30;;;;;;;;;;12525425;28;20041;-80
2022/05/18 05:07:43;;;;;;;2.15;1.60;;;;;;;;;;12542602;28;20072;-79
2022/05/18 05:13:45;;;;;;;1.10;1.00;;;;;;;;;;12525146;28;20049;-79
2022/05/18 05:19:47;;;;;;;2.17;1.10;;;;;;;;;;12541390;28;20028;-79
2022/05/18 05:25:49;;;;;;;1.88;1.48;;;;;;;;;;12525383;28;20389;-79
2022/05/18 05:31:50;;;;;;;1.70;1.60;;;;;;;;;;12524708;28;20044;-80
2022/05/18 05:37:52;;;;;;;2.58;1.77;;;;;;;;;;12523782;28;20033;-81
2022/05/18 05:43:55;;;;;;;2.25;1.83;;;;;;;;;;12506426;28;20189;-81
2022/05/18 05:49:56;;;;;;;1.92;1.60;;;;;;;;;;12515231;28;20045;-81
2022/05/18 05:55:59;;;;;;;1.25;1.15;;;;;;;;;;12532549;28;20456;-80
2022/05/18 06:02:05;;;;;;;1.13;1.00;;;;;;;;;;12523110;28;20389;-78
2022/05/18 06:08:08;;;;;;;1.48;1.08;;;;;;;;;;12496383;28;20050;-81
2022/05/18 06:14:09;;;;;;;2.03;0.90;;;;;;;;;;12528582;28;20041;-80
2022/05/18 06:20:11;;;;;;;2.47;1.30;;;;;;;;;;12534331;28;20036;-80
2022/05/18 06:26:13;;;;;;;;;;;;;;;;;;12520479;28;20067;-80
2022/05/18 06:32:15;;;;;;;1.45;1.30;;;;;;;;;;12534390;28;19925;-79
2022/05/18 06:38:17;;;;;;;1.40;1.20;;;;;;;;;;12515915;28;20037;-80
2022/05/18 06:44:19;;;;;;;1.40;0.95;;;;;;;;;;12508338;28;20625;-80
2022/05/18 06:50:21;;;;;;;;;;;;;;;;;;12530196;28;20053;-80
2022/05/18 06:56:24;;;;;;;1.20;1.00;;;;;;;;;;12532113;28;19912;-80
2022/05/18 07:02:26;;;;;;;1.95;1.42;;;;;;;;;;12491736;28;20037;-82
2022/05/18 07:08:28;;;;;;;2.15;1.80;;;;;;;;;;12513467;28;20064;-81
2022/05/18 07:14:30;;;;;;;2.40;1.58;;;;;;;;;;12489030;28;20056;-79
2022/05/18 07:20:32;;;;;;;1.77;1.35;;;;;;;;;;12528081;28;20398;-80
2022/05/18 07:26:34;;;;;;;1.80;1.70;;;;;;;;;;12521332;28;20033;-80
2022/05/18 07:32:37;;;;;;;1.60;1.23;;;;;;;;;;12511424;28;20041;-80
2022/05/18 07:38:45;;;;;;;2.10;1.98;;;;;;;;;;12517571;28;20033;-83
2022/05/18 07:44:47;;;;;;;3.97;2.20;;;;;;;;;;12528240;28;20033;-81
2022/05/18 07:50:50;;;;;;;2.00;1.52;;;;;;;;;;12504463;28;20410;-81
2022/05/18 07:56:51;;;;;;;3.08;1.90;;;;;;;;;;12517926;28;20038;-81
2022/05/18 08:02:56;;;;;;;;;;;;;;;;;;12525385;28;20033;-82
2022/05/18 08:08:58;;;;;;;3.97;3.03;;;;;;;;;;12515443;28;20400;-81
2022/05/18 08:15:06;;;;;;;3.17;2.88;;;;;;;;;;12508779;28;20044;-80
2022/05/18 08:21:08;;;;;;;3.63;2.88;;;;;;;;;;12528748;28;20029;-79
2022/05/18 08:27:14;;;;;;;3.17;2.40;;;;;;;;;;12518121;28;20055;-82
2022/05/18 08:33:16;;;;;;;4.00;2.70;;;;;;;;;;12512580;28;20136;-86
2022/05/18 08:39:18;;;;;;;;;;;;;;;;;;12537864;28;20052;-82
2022/05/18 08:45:20;;;;;;;2.80;2.00;;;;;;;;;;12528734;28;20286;-81
2022/05/18 08:51:28;;;;;;;5.60;2.70;;;;;;;;;;12517481;28;20366;-80
2022/05/18 08:57:34;;;;;;;2.60;2.25;;;;;;;;;;12511344;28;20037;-84
2022/05/18 09:03:56;;;;;;;29.17;10.40;;;;;;;;;;12538404;28;20029;-80
2022/05/18 09:10:14;;;;;;;29.90;11.00;;;;;;;;;;12516913;28;20395;-80
2022/05/18 09:16:24;;;;;;;6.60;3.08;;;;;;;;;;12523154;28;20032;-84
2022/05/18 09:22:38;;;;;;;15.40;6.30;;;;;;;;;;12547666;28;20470;-83
2022/05/18 09:28:43;;;;;;;4.95;2.83;;;;;;;;;;12538861;28;20029;-81
2022/05/18 09:34:54;;;;;;;3.05;2.10;;;;;;;;;;12522613;28;20056;-81
2022/05/18 09:40:56;;;;;;;3.22;1.80;;;;;;;;;;12521298;28;20040;-81
2022/05/18 09:46:58;;;;;;;2.45;1.60;;;;;;;;;;12547998;28;20028;-81
2022/05/18 09:53:00;;;;;;;1.88;1.30;;;;;;;;;;12546456;28;20041;-80
2022/05/18 09:59:06;;;;;;;2.15;1.50;;;;;;;;;;12530732;28;20025;-81
2022/05/18 10:11:33;;;;;;;2.55;1.30;;;;;;;;;;12546859;28;20075;-81
2022/05/18 10:17:37;;;;;;;2.05;1.00;;;;;;;;;;12536210;28;20040;-81
2022/05/18 10:23:39;;;;;;;2.78;1.10;;;;;;;;;;12537891;28;20029;-81
2022/05/18 10:29:42;;;;;;;1.35;1.08;;;;;;;;;;12549832;28;20049;-81
2022/05/18 10:35:46;;;;;;;2.17;1.20;;;;;;;;;;12543776;28;20048;-81
2022/05/18 10:41:48;;;;;;;2.35;1.48;;;;;;;;;;12523877;28;20040;-82
2022/05/18 10:47:51;;;;;;;2.20;1.08;;;;;;;;;;12510327;28;20029;-80
2022/05/18 10:53:52;;;;;;;1.48;1.38;;;;;;;;;;12511562;28;20040;-81
2022/05/18 11:00:12;;;;;;;1.25;1.20;;;;;;;;;;12545092;28;20032;-82
2022/05/18 11:06:21;;;;;;;3.47;1.48;;;;;;;;;;12524737;28;20397;-80
2022/05/18 11:12:43;;;;;;;2.22;1.45;;;;;;;;;;12536039;28;20048;-82
2022/05/18 11:18:47;;;;;;;1.45;1.10;;;;;;;;;;12522691;28;20405;-78
2022/05/18 11:24:55;;;;;;;2.78;1.48;;;;;;;;;;12533262;28;20040;-78
2022/05/18 11:31:01;;;;;;;0.80;0.80;;;;;;;;;;12484357;28;20049;-78
2022/05/18 11:37:02;;;;;;;1.42;1.05;;;;;;;;;;12495363;28;20037;-78
2022/05/18 11:43:28;;;;;;;3.10;1.30;;;;;;;;;;12496267;28;20040;-78
2022/05/18 11:49:32;;;;;;;1.30;1.20;;;;;;;;;;12495712;28;20038;-78
2022/05/18 11:55:41;;;;;;;1.25;0.90;;;;;;;;;;12478961;28;20502;-76
2022/05/18 12:01:56;;;;;;;2.08;1.30;;;;;;;;;;12477955;28;20026;-78
2022/05/18 12:08:01;;;;;;;0.80;0.80;;;;;;;;;;12494002;28;20068;-79
2022/05/18 12:14:03;;;;;;;1.92;1.33;;;;;;;;;;12493883;28;20495;-78
2022/05/18 12:20:11;;;;;;;1.30;1.17;;;;;;;;;;12493983;28;20048;-78
2022/05/18 12:26:15;;;;;;;1.30;1.10;;;;;;;;;;12494281;28;20041;-77
2022/05/18 12:32:17;;;;;;;1.88;1.30;;;;;;;;;;12494034;28;20494;-77
2022/05/18 12:38:24;;;;;;;0.90;0.90;;;;;;;;;;12493962;28;20045;-77
2022/05/18 12:44:37;;;;;;;1.20;0.80;;;;;;;;;;12476305;28;20045;-77
2022/05/18 12:51:04;;;;;;;1.02;0.90;;;;;;;;;;12500820;28;20060;-79
2022/05/18 12:57:07;;;;;;;1.13;0.90;;;;;;;;;;12477293;28;20049;-79
2022/05/18 13:03:08;;;;;;;2.17;1.33;;;;;;;;;;12501621;28;20099;-80
2022/05/18 13:09:16;;;;;;;1.52;1.02;;;;;;;;;;12502174;28;20056;-80
2022/05/18 13:15:21;;;;;;;1.83;1.10;;;;;;;;;;12503813;28;20040;-80
2022/05/18 13:21:28;;;;;;;0.95;0.75;;;;;;;;;;12503562;28;20060;-80
2022/05/18 13:27:51;;;;;;;0.90;0.90;;;;;;;;;;12503322;28;20032;-80
2022/05/18 13:33:58;;;;;;;0.70;0.70;;;;;;;;;;12501330;28;20044;-80
2022/05/18 13:40:00;;;;;;;1.75;1.00;;;;;;;;;;12503260;28;20040;-80
2022/05/18 13:46:05;;;;;;;1.45;0.77;;;;;;;;;;12501963;28;20037;-80
2022/05/18 13:52:09;;;;;;;1.38;0.80;;;;;;;;;;12483501;28;20041;-81
2022/05/18 13:58:14;;;;;;;1.52;0.90;;;;;;;;;;12499419;28;20038;-80
2022/05/18 14:04:16;;;;;;;1.20;0.90;;;;;;;;;;12502813;28;20048;-80
2022/05/18 14:10:21;;;;;;;0.98;0.80;;;;;;;;;;12500118;28;20069;-80
2022/05/18 14:16:42;;;;;;;1.05;0.70;;;;;;;;;;12502100;28;20390;-80
2022/05/18 14:22:47;;;;;;;0.60;0.50;;;;;;;;;;12498842;28;20033;-81
2022/05/18 14:28:51;;;;;;;0.73;0.60;;;;;;;;;;12500180;28;20037;-80
2022/05/18 14:35:00;;;;;;;2.00;0.80;;;;;;;;;;12498933;28;20493;-80
2022/05/18 14:41:04;;;;;;;2.03;0.90;;;;;;;;;;12499071;28;20040;-80
2022/05/18 14:47:32;;;;;;;2.30;0.80;;;;;;;;;;12498135;28;20040;-80
2022/05/18 14:53:40;;;;;;;1.20;0.60;;;;;;;;;;12476762;28;20414;-81
2022/05/18 14:59:45;;;;;;;0.98;0.50;;;;;;;;;;12498961;28;20045;-81
2022/05/18 15:05:50;;;;;;;0.93;0.73;;;;;;;;;;12497951;28;20096;-80
2022/05/18 15:11:56;;;;;;;1.50;0.80;;;;;;;;;;12496328;28;20053;-81
2022/05/18 15:18:06;;;;;;;0.70;0.60;;;;;;;;;;12496789;28;20037;-81
2022/05/18 15:24:15;;;;;;;0.75;0.60;;;;;;;;;;12496971;28;20394;-81
2022/05/18 15:30:17;;;;;;;1.30;0.70;;;;;;;;;;12495948;28;20049;-81
2022/05/18 15:36:28;;;;;;;0.63;0.63;;;;;;;;;;12637595;28;20523;-79
2022/05/18 15:42:30;;;;;;;1.13;0.63;;;;;;;;;;12637317;28;20055;-80
2022/05/18 15:48:33;;;;;;;1.17;0.85;;;;;;;;;;12603208;28;20032;-86
2022/05/18 15:54:40;;;;;;;2.58;0.70;;;;;;;;;;12618836;28;20040;-83
2022/05/18 16:00:44;;;;;;;0.70;0.70;;;;;;;;;;12618180;28;20040;-81
2022/05/18 16:06:46;;;;;;;0.90;0.70;;;;;;;;;;12617607;28;20024;-78
2022/05/18 16:12:49;;;;;;;1.00;0.70;;;;;;;;;;12635417;28;20291;-80
2022/05/18 16:18:51;;;;;;;1.23;0.73;;;;;;;;;;12617424;28;20044;-76
2022/05/18 16:24:54;;;;;;;1.52;0.95;;;;;;;;;;12634788;28;20040;-77
2022/05/18 16:30:58;;;;;;;1.42;0.60;;;;;;;;;;12599562;28;20059;-77
2022/05/18 16:37:00;;;;;;;1.02;0.77;;;;;;;;;;12634548;28;20028;-75
2022/05/18 16:43:02;;;;;;;1.33;0.70;;;;;;;;;;12609224;28;20512;-75
2022/05/18 16:49:04;;;;;;;0.85;0.70;;;;;;;;;;12600479;28;20051;-75
2022/05/18 16:55:07;;;;;;;0.95;0.80;;;;;;;;;;12600067;28;20036;-74
2022/05/18 17:01:09;;;;;;;0.77;0.70;;;;;;;;;;12599989;28;20052;-75
2022/05/18 17:07:11;;;;;;;0.70;0.70;;;;;;;;;;12599741;28;20726;-75
2022/05/18 17:13:15;;;;;;;2.15;1.02;;;;;;;;;;12599423;28;20048;-76
2022/05/18 17:19:18;;;;;;;0.90;0.80;;;;;;;;;;12581216;28;20024;-76
2022/05/18 17:25:20;;;;;;;1.73;0.70;;;;;;;;;;12598714;28;20397;-78
2022/05/18 17:31:21;;;;;;;0.73;0.68;;;;;;;;;;12580127;28;20056;-77
2022/05/18 17:37:23;;;;;;;1.25;0.75;;;;;;;;;;12580634;28;20060;-77
2022/05/18 17:43:25;;;;;;;1.55;0.80;;;;;;;;;;12579893;28;20036;-78
2022/05/18 17:49:29;;;;;;;1.27;1.17;;;;;;;;;;12597502;28;20409;-78
2022/05/18 17:55:33;;;;;;;0.98;0.88;;;;;;;;;;12577955;28;20036;-76
2022/05/18 18:01:38;;;;;;;1.77;0.90;;;;;;;;;;12578975;28;20048;-79
2022/05/18 18:07:40;;;;;;;2.08;1.05;;;;;;;;;;12595981;28;20028;-80
2022/05/18 18:13:41;;;;;;;1.10;1.00;;;;;;;;;;12596571;28;20047;-85
2022/05/18 18:19:45;;;;;;;1.17;1.08;;;;;;;;;;12561045;28;20110;-77
2022/05/18 18:25:49;;;;;;;0.90;0.85;;;;;;;;;;12595512;28;20047;-78
2022/05/18 18:31:52;;;;;;;1.92;1.00;;;;;;;;;;12577235;28;20056;-78
2022/05/18 18:37:54;;;;;;;2.53;1.17;;;;;;;;;;12595725;28;20044;-81
2022/05/18 18:43:56;;;;;;;1.38;1.10;;;;;;;;;;12594576;28;20028;-79
2022/05/18 18:49:58;;;;;;;1.33;1.13;;;;;;;;;;12560484;28;20033;-79
2022/05/18 18:56:00;;;;;;;1.33;1.13;;;;;;;;;;12595209;28;20170;-86
2022/05/18 19:02:02;;;;;;;2.22;1.20;;;;;;;;;;12596335;28;20032;-81
2022/05/18 19:08:04;;;;;;;2.67;1.10;;;;;;;;;;12597060;28;20032;-84
2022/05/18 19:14:06;;;;;;;1.75;1.13;;;;;;;;;;12562194;28;20040;-80
2022/05/18 19:20:09;;;;;;;1.63;1.27;;;;;;;;;;12579629;28;20087;-77
2022/05/18 19:26:11;;;;;;;1.88;1.48;;;;;;;;;;12559755;28;20032;-80
2022/05/18 19:32:17;;;;;;;2.00;1.17;;;;;;;;;;12576609;28;20456;-84
2022/05/18 19:38:19;;;;;;;1.17;1.08;;;;;;;;;;12596291;28;20029;-80
2022/05/18 19:44:22;;;;;;;1.00;0.95;;;;;;;;;;12576561;28;20040;-80
2022/05/18 19:50:26;;;;;;;1.75;1.38;;;;;;;;;;12595154;28;20037;-79
2022/05/18 19:56:29;;;;;;;1.20;1.10;;;;;;;;;;12559849;28;20036;-87
2022/05/18 20:02:31;;;;;;;1.23;1.13;;;;;;;;;;12560408;28;20417;-80
2022/05/18 20:08:33;;;;;;;1.48;1.38;;;;;;;;;;12593133;28;20032;-82
2022/05/18 20:14:35;;;;;;;1.50;1.20;;;;;;;;;;12593696;28;20055;-80
2022/05/18 20:20:37;;;;;;;1.95;1.67;;;;;;;;;;12563823;28;20033;-82
2022/05/18 20:26:40;;;;;;;1.35;1.25;;;;;;;;;;12603776;28;20047;-81
2022/05/18 20:32:41;;;;;;;1.33;1.23;;;;;;;;;;12603784;28;20060;-84
2022/05/18 20:38:43;;;;;;;;;;;;;;;;;;12602186;28;20040;-78
2022/05/18 20:44:44;;;;;;;1.20;1.10;;;;;;;;;;12583489;28;20272;-79
2022/05/18 20:50:46;;;;;;;;;;;;;;;;;;12601408;28;20389;-79
2022/05/18 20:56:49;;;;;;;1.42;1.33;;;;;;;;;;12565944;28;19966;-79
2022/05/18 21:02:50;;;;;;;;;;;;;;;;;;12567020;28;20040;-78
2022/05/18 21:08:52;;;;;;;2.95;1.38;;;;;;;;;;12599877;28;19951;-78
2022/05/18 21:14:54;;;;;;;1.10;1.00;;;;;;;;;;12581885;28;20393;-79
2022/05/18 21:20:55;;;;;;;;;;;;;;;;;;12599962;28;20036;-79
2022/05/18 21:26:57;;;;;;;1.27;1.17;;;;;;;;;;12599441;28;19916;-78
2022/05/18 21:33:00;;;;;;;4.68;1.63;;;;;;;;;;12580483;28;20060;-79
2022/05/18 21:39:02;;;;;;;1.27;1.17;;;;;;;;;;12598602;28;20040;-79
2022/05/18 21:45:03;;;;;;;;;;;;;;;;;;12598485;28;20032;-78
2022/05/18 21:51:06;;;;;;;0.98;0.98;;;;;;;;;;12597831;28;19909;-79
2022/05/18 21:57:09;;;;;;;2.00;1.20;;;;;;;;;;12597848;28;20389;-79
2022/05/18 22:03:13;;;;;;;2.50;1.50;;;;;;;;;;12598209;28;20488;-79
2022/05/18 22:09:15;;;;;;;1.35;1.23;;;;;;;;;;12579696;28;20055;-79
2022/05/18 22:15:17;;;;;;;1.80;1.70;;;;;;;;;;12596731;28;20044;-79
2022/05/18 22:21:19;;;;;;;;;;;;;;;;;;12563393;28;20033;-79
2022/05/18 22:27:21;;;;;;;2.60;2.03;;;;;;;;;;12578339;28;20365;-79
2022/05/18 22:33:23;;;;;;;3.80;2.30;;;;;;;;;;12577827;28;20480;-79
2022/05/18 22:39:25;;;;;;;1.60;1.50;;;;;;;;;;12595955;28;20029;-80
2022/05/18 22:45:26;;;;;;;;;;;;;;;;;;12595886;28;20041;-80
2022/05/18 22:51:29;;;;;;;2.38;1.88;;;;;;;;;;12578139;28;19916;-80
2022/05/18 22:57:31;;;;;;;3.17;2.58;;;;;;;;;;12595033;28;20044;-80
2022/05/18 23:03:36;;;;;;;2.25;1.95;;;;;;;;;;12577603;28;20063;-80
2022/05/18 23:09:38;;;;;;;3.05;2.30;;;;;;;;;;12577211;28;20032;-80
2022/05/18 23:15:40;;;;;;;;;;;;;;;;;;12560375;28;20044;-80
2022/05/18 23:21:42;;;;;;;2.45;2.25;;;;;;;;;;12576699;28;19915;-80
2022/05/18 23:27:44;;;;;;;2.47;2.03;;;;;;;;;;12559830;28;20047;-80
2022/05/18 23:33:47;;;;;;;2.55;2.35;;;;;;;;;;12559005;28;20049;-80
2022/05/18 23:39:49;;;;;;;2.90;2.67;;;;;;;;;;12593972;28;20036;-80
2022/05/18 23:46:01;;;;;;;2.50;2.17;;;;;;;;;;12594324;28;20482;-79
2022/05/18 23:52:03;;;;;;;2.80;2.10;;;;;;;;;;12594174;28;20396;-79
2022/05/18 23:58:06;;;;;;;2.90;1.98;;;;;;;;;;12585277;28;20481;-80
